KRIC/RIC METAR and TAF weather

Enter ICAO airport designator
Station Type Date Time Source
KRIC METAR 2018/12/11 22:54 UTC NOAA

KRIC 112254Z 19005KT 10SM CLR M01/M05 A3006 RMK AO2 SLP186 T10061050


Station Type Date Time Source
KRIC Decoded METAR 2018/12/11 22:54 UTC NOAA

RICHMOND INTERNATIONAL AIRPORT, VA, United States (KRIC) 37-31N 077-19W 50M
Dec 11, 2018 - 05:54 PM EST / 2018.12.11 2254 UTC
Wind: from the S (190 degrees) at 6 MPH (5 KT):0
Visibility: 10 mile(s):0
Sky conditions: clear
Temperature: 30.9 F (-0.6 C)
Windchill: 24 F (-4 C):1
Dew Point: 23.0 F (-5.0 C)
Relative Humidity: 72%
Pressure (altimeter): 30.06 in. Hg (1017 hPa)
ob: KRIC 112254Z 19005KT 10SM CLR M01/M05 A3006 RMK AO2 SLP186 T10061050
cycle: 23

Station Type Date Time Source
KRIC TAF 2018/12/11 18:45 UTC NOAA

TAF KRIC 111743Z 1118/1218 35005KT P6SM SKC
FM112300 24003KT P6SM SKC


Example: see airport list